Terminal Aerodrome Forecast
Issued by NWS St Louis, MO

Home | Current Version | Previous Version | Text Only | Print | Product List | Glossary On
Versions: 1 2 3 4 5 6 7 8 9 10 11 12 13 14 15
459
FTUS43 KLSX 310714 AAA
TAFCOU
TAF AMD
KCOU 310714Z 3107/0106 VRB03KT P6SM -RA OVC080
     FM311300 VRB03KT P6SM BKN080
     FM311800 16008KT P6SM VCTS BKN040CB
     FM010000 16006KT P6SM BKN080=

USA.gov is the U.S. government's official web portal to all federal, state and local government web resources and services.